sensor_id;sensor_type;location;lat;lon;timestamp;temperature;humidity
4647;DHT22;2336;47.822;7.564;2022-08-25T00:00:19;19.10;99.90
4647;DHT22;2336;47.822;7.564;2022-08-25T00:02:47;19.10;99.90
4647;DHT22;2336;47.822;7.564;2022-08-25T00:05:14;19.00;99.90
4647;DHT22;2336;47.822;7.564;2022-08-25T00:07:41;19.00;99.90
4647;DHT22;2336;47.822;7.564;2022-08-25T00:10:08;18.90;99.90
4647;DHT22;2336;47.822;7.564;2022-08-25T00:12:35;18.90;99.90
4647;DHT22;2336;47.822;7.564;2022-08-25T00:15:03;18.80;99.90
4647;DHT22;2336;47.822;7.564;2022-08-25T00:17:31;18.80;99.90
4647;DHT22;2336;47.822;7.564;2022-08-25T00:19:58;18.80;99.90
4647;DHT22;2336;47.822;7.564;2022-08-25T00:22:25;18.80;99.90
4647;DHT22;2336;47.822;7.564;2022-08-25T00:24:51;18.80;99.90
4647;DHT22;2336;47.822;7.564;2022-08-25T00:27:18;18.80;99.90
4647;DHT22;2336;47.822;7.564;2022-08-25T00:29:45;18.80;99.90
4647;DHT22;2336;47.822;7.564;2022-08-25T00:32:13;18.80;99.90
4647;DHT22;2336;47.822;7.564;2022-08-25T00:34:41;18.70;99.90
4647;DHT22;2336;47.822;7.564;2022-08-25T00:37:08;18.60;99.90
4647;DHT22;2336;47.822;7.564;2022-08-25T00:39:36;18.60;99.90
4647;DHT22;2336;47.822;7.564;2022-08-25T00:42:04;18.60;99.90
4647;DHT22;2336;47.822;7.564;2022-08-25T00:44:31;18.60;99.90
4647;DHT22;2336;47.822;7.564;2022-08-25T00:47:00;18.50;99.90
4647;DHT22;2336;47.822;7.564;2022-08-25T00:49:29;18.50;99.90
4647;DHT22;2336;47.822;7.564;2022-08-25T00:52:02;18.40;99.90
4647;DHT22;2336;47.822;7.564;2022-08-25T00:54:32;18.40;99.90
4647;DHT22;2336;47.822;7.564;2022-08-25T00:57:00;18.30;99.90
4647;DHT22;2336;47.822;7.564;2022-08-25T00:59:29;18.20;99.90
4647;DHT22;2336;47.822;7.564;2022-08-25T01:01:56;18.10;99.90
4647;DHT22;2336;47.822;7.564;2022-08-25T01:04:23;18.10;99.90
4647;DHT22;2336;47.822;7.564;2022-08-25T01:06:50;18.10;99.90
4647;DHT22;2336;47.822;7.564;2022-08-25T01:09:19;18.00;99.90
4647;DHT22;2336;47.822;7.564;2022-08-25T01:11:46;18.00;99.90
4647;DHT22;2336;47.822;7.564;2022-08-25T01:14:16;17.90;99.90
4647;DHT22;2336;47.822;7.564;2022-08-25T01:16:44;17.90;99.90
4647;DHT22;2336;47.822;7.564;2022-08-25T01:19:12;17.90;99.90
4647;DHT22;2336;47.822;7.564;2022-08-25T01:21:43;17.90;99.90
4647;DHT22;2336;47.822;7.564;2022-08-25T01:24:15;17.90;99.90
4647;DHT22;2336;47.822;7.564;2022-08-25T01:26:45;17.90;99.90
4647;DHT22;2336;47.822;7.564;2022-08-25T01:29:12;17.90;99.90
4647;DHT22;2336;47.822;7.564;2022-08-25T01:31:53;17.80;99.90
4647;DHT22;2336;47.822;7.564;2022-08-25T01:34:22;17.70;99.90
4647;DHT22;2336;47.822;7.564;2022-08-25T01:36:51;17.80;99.90
4647;DHT22;2336;47.822;7.564;2022-08-25T01:39:17;17.80;99.90
4647;DHT22;2336;47.822;7.564;2022-08-25T01:41:53;17.70;99.90
4647;DHT22;2336;47.822;7.564;2022-08-25T01:44:24;17.70;99.90
4647;DHT22;2336;47.822;7.564;2022-08-25T01:46:51;17.70;99.90
4647;DHT22;2336;47.822;7.564;2022-08-25T01:49:19;17.70;99.90
4647;DHT22;2336;47.822;7.564;2022-08-25T01:51:48;17.70;99.90
4647;DHT22;2336;47.822;7.564;2022-08-25T01:54:18;17.60;99.90
4647;DHT22;2336;47.822;7.564;2022-08-25T01:56:45;17.60;99.90
4647;DHT22;2336;47.822;7.564;2022-08-25T01:59:14;17.60;99.90
4647;DHT22;2336;47.822;7.564;2022-08-25T02:01:41;17.60;99.90
4647;DHT22;2336;47.822;7.564;2022-08-25T02:04:08;17.50;99.90
4647;DHT22;2336;47.822;7.564;2022-08-25T02:06:35;17.50;99.90
4647;DHT22;2336;47.822;7.564;2022-08-25T02:09:05;17.50;99.90
4647;DHT22;2336;47.822;7.564;2022-08-25T02:11:35;17.50;99.90
4647;DHT22;2336;47.822;7.564;2022-08-25T02:14:02;17.50;99.90
4647;DHT22;2336;47.822;7.564;2022-08-25T02:16:32;17.50;99.90
4647;DHT22;2336;47.822;7.564;2022-08-25T02:19:00;17.50;99.90
4647;DHT22;2336;47.822;7.564;2022-08-25T02:21:27;17.40;99.90
4647;DHT22;2336;47.822;7.564;2022-08-25T02:23:54;17.30;99.90
4647;DHT22;2336;47.822;7.564;2022-08-25T02:26:21;17.30;99.90
4647;DHT22;2336;47.822;7.564;2022-08-25T02:28:51;17.20;99.90
4647;DHT22;2336;47.822;7.564;2022-08-25T02:31:20;17.20;99.90
4647;DHT22;2336;47.822;7.564;2022-08-25T02:33:47;17.20;99.90
4647;DHT22;2336;47.822;7.564;2022-08-25T02:36:15;17.20;99.90
4647;DHT22;2336;47.822;7.564;2022-08-25T02:38:42;17.30;99.90
4647;DHT22;2336;47.822;7.564;2022-08-25T02:41:12;17.30;99.90
4647;DHT22;2336;47.822;7.564;2022-08-25T02:43:39;17.30;99.90
4647;DHT22;2336;47.822;7.564;2022-08-25T02:46:08;17.20;99.90
4647;DHT22;2336;47.822;7.564;2022-08-25T02:48:34;17.20;99.90
4647;DHT22;2336;47.822;7.564;2022-08-25T02:51:02;17.20;99.90
4647;DHT22;2336;47.822;7.564;2022-08-25T02:53:30;17.20;99.90
4647;DHT22;2336;47.822;7.564;2022-08-25T02:55:56;17.20;99.90
4647;DHT22;2336;47.822;7.564;2022-08-25T02:58:24;17.10;99.90
4647;DHT22;2336;47.822;7.564;2022-08-25T03:00:51;17.10;99.90
4647;DHT22;2336;47.822;7.564;2022-08-25T03:03:19;17.10;99.90
4647;DHT22;2336;47.822;7.564;2022-08-25T03:05:46;17.10;99.90
4647;DHT22;2336;47.822;7.564;2022-08-25T03:08:14;17.10;99.90
4647;DHT22;2336;47.822;7.564;2022-08-25T03:10:41;17.20;99.90
4647;DHT22;2336;47.822;7.564;2022-08-25T03:13:07;17.20;99.90
4647;DHT22;2336;47.822;7.564;2022-08-25T03:15:34;17.30;99.90
4647;DHT22;2336;47.822;7.564;2022-08-25T03:18:02;17.40;99.90
4647;DHT22;2336;47.822;7.564;2022-08-25T03:20:30;17.50;99.90
4647;DHT22;2336;47.822;7.564;2022-08-25T03:23:00;17.40;99.90
4647;DHT22;2336;47.822;7.564;2022-08-25T03:25:27;17.50;99.90
4647;DHT22;2336;47.822;7.564;2022-08-25T03:28:11;17.50;99.90
4647;DHT22;2336;47.822;7.564;2022-08-25T03:30:37;17.60;99.90
4647;DHT22;2336;47.822;7.564;2022-08-25T03:33:04;17.50;99.90
4647;DHT22;2336;47.822;7.564;2022-08-25T03:35:32;17.50;99.90
4647;DHT22;2336;47.822;7.564;2022-08-25T03:37:59;17.40;99.90
4647;DHT22;2336;47.822;7.564;2022-08-25T03:40:26;17.30;99.90
4647;DHT22;2336;47.822;7.564;2022-08-25T03:42:53;17.30;99.90
4647;DHT22;2336;47.822;7.564;2022-08-25T03:45:21;17.40;99.90
4647;DHT22;2336;47.822;7.564;2022-08-25T03:47:49;17.50;99.90
4647;DHT22;2336;47.822;7.564;2022-08-25T03:50:18;17.50;99.90
4647;DHT22;2336;47.822;7.564;2022-08-25T03:52:51;17.40;99.90
4647;DHT22;2336;47.822;7.564;2022-08-25T03:55:18;17.30;99.90
4647;DHT22;2336;47.822;7.564;2022-08-25T03:57:45;17.30;99.90
4647;DHT22;2336;47.822;7.564;2022-08-25T04:00:12;17.30;99.90
4647;DHT22;2336;47.822;7.564;2022-08-25T04:02:39;17.20;99.90
4647;DHT22;2336;47.822;7.564;2022-08-25T04:05:07;17.20;99.90
4647;DHT22;2336;47.822;7.564;2022-08-25T04:07:34;17.20;99.90
4647;DHT22;2336;47.822;7.564;2022-08-25T04:10:03;17.10;99.90
4647;DHT22;2336;47.822;7.564;2022-08-25T04:12:30;17.10;99.90
4647;DHT22;2336;47.822;7.564;2022-08-25T04:14:57;17.10;99.90
4647;DHT22;2336;47.822;7.564;2022-08-25T04:17:24;17.10;99.90
4647;DHT22;2336;47.822;7.564;2022-08-25T04:19:51;17.10;99.90
4647;DHT22;2336;47.822;7.564;2022-08-25T04:22:17;17.10;99.90
4647;DHT22;2336;47.822;7.564;2022-08-25T04:24:44;17.20;99.90
4647;DHT22;2336;47.822;7.564;2022-08-25T04:27:12;17.20;99.90
4647;DHT22;2336;47.822;7.564;2022-08-25T04:29:39;17.20;99.90
4647;DHT22;2336;47.822;7.564;2022-08-25T04:32:06;17.20;99.90
4647;DHT22;2336;47.822;7.564;2022-08-25T04:34:33;17.10;99.90
4647;DHT22;2336;47.822;7.564;2022-08-25T04:37:02;17.10;99.90
4647;DHT22;2336;47.822;7.564;2022-08-25T04:39:30;17.10;99.90
4647;DHT22;2336;47.822;7.564;2022-08-25T04:41:58;17.00;99.90
4647;DHT22;2336;47.822;7.564;2022-08-25T04:44:26;16.90;99.90
4647;DHT22;2336;47.822;7.564;2022-08-25T04:46:53;16.90;99.90
4647;DHT22;2336;47.822;7.564;2022-08-25T04:49:20;16.80;99.90
4647;DHT22;2336;47.822;7.564;2022-08-25T04:51:46;16.70;99.90
4647;DHT22;2336;47.822;7.564;2022-08-25T04:54:14;16.70;99.90
4647;DHT22;2336;47.822;7.564;2022-08-25T04:56:46;16.70;99.90
4647;DHT22;2336;47.822;7.564;2022-08-25T04:59:14;16.60;99.90
4647;DHT22;2336;47.822;7.564;2022-08-25T05:01:43;16.60;99.90
4647;DHT22;2336;47.822;7.564;2022-08-25T05:04:13;16.70;99.90
4647;DHT22;2336;47.822;7.564;2022-08-25T05:06:40;16.70;99.90
4647;DHT22;2336;47.822;7.564;2022-08-25T05:09:08;16.70;99.90
4647;DHT22;2336;47.822;7.564;2022-08-25T05:11:35;16.70;99.90
4647;DHT22;2336;47.822;7.564;2022-08-25T05:14:02;16.70;99.90
4647;DHT22;2336;47.822;7.564;2022-08-25T05:16:28;16.70;99.90
4647;DHT22;2336;47.822;7.564;2022-08-25T05:18:57;16.70;99.90
4647;DHT22;2336;47.822;7.564;2022-08-25T05:21:26;16.70;99.90
4647;DHT22;2336;47.822;7.564;2022-08-25T05:23:55;16.80;99.90
4647;DHT22;2336;47.822;7.564;2022-08-25T05:26:23;16.80;99.90
4647;DHT22;2336;47.822;7.564;2022-08-25T05:28:52;16.80;99.90
4647;DHT22;2336;47.822;7.564;2022-08-25T05:31:21;16.80;99.90
4647;DHT22;2336;47.822;7.564;2022-08-25T05:33:48;17.00;99.90
4647;DHT22;2336;47.822;7.564;2022-08-25T05:36:17;17.10;99.90
4647;DHT22;2336;47.822;7.564;2022-08-25T05:38:45;17.30;99.90
4647;DHT22;2336;47.822;7.564;2022-08-25T05:41:15;17.40;99.90
4647;DHT22;2336;47.822;7.564;2022-08-25T05:43:43;17.50;99.90
4647;DHT22;2336;47.822;7.564;2022-08-25T05:46:11;17.60;99.90
4647;DHT22;2336;47.822;7.564;2022-08-25T05:48:38;17.70;99.90
4647;DHT22;2336;47.822;7.564;2022-08-25T05:51:08;17.70;99.90
4647;DHT22;2336;47.822;7.564;2022-08-25T05:53:38;17.70;99.90
4647;DHT22;2336;47.822;7.564;2022-08-25T05:56:06;17.80;99.90
4647;DHT22;2336;47.822;7.564;2022-08-25T05:58:33;17.80;99.90
4647;DHT22;2336;47.822;7.564;2022-08-25T06:01:00;17.90;99.90
4647;DHT22;2336;47.822;7.564;2022-08-25T06:03:47;17.90;99.90
4647;DHT22;2336;47.822;7.564;2022-08-25T06:06:14;18.00;99.90
4647;DHT22;2336;47.822;7.564;2022-08-25T06:08:43;18.10;99.90
4647;DHT22;2336;47.822;7.564;2022-08-25T06:11:10;18.20;99.90
4647;DHT22;2336;47.822;7.564;2022-08-25T06:13:37;18.30;99.90
4647;DHT22;2336;47.822;7.564;2022-08-25T06:16:04;18.40;99.90
4647;DHT22;2336;47.822;7.564;2022-08-25T06:18:31;18.40;99.90
4647;DHT22;2336;47.822;7.564;2022-08-25T06:20:58;18.50;99.90
4647;DHT22;2336;47.822;7.564;2022-08-25T06:23:24;18.60;99.90
4647;DHT22;2336;47.822;7.564;2022-08-25T06:25:53;18.60;99.90
4647;DHT22;2336;47.822;7.564;2022-08-25T06:28:21;18.70;99.90
4647;DHT22;2336;47.822;7.564;2022-08-25T06:30:47;18.70;99.90
4647;DHT22;2336;47.822;7.564;2022-08-25T06:33:14;18.80;99.90
4647;DHT22;2336;47.822;7.564;2022-08-25T06:35:41;18.90;99.90
4647;DHT22;2336;47.822;7.564;2022-08-25T06:38:09;18.90;99.90
4647;DHT22;2336;47.822;7.564;2022-08-25T06:40:36;19.00;99.90
4647;DHT22;2336;47.822;7.564;2022-08-25T06:43:04;19.20;99.90
4647;DHT22;2336;47.822;7.564;2022-08-25T06:45:33;19.20;99.90
4647;DHT22;2336;47.822;7.564;2022-08-25T06:48:00;19.30;99.90
4647;DHT22;2336;47.822;7.564;2022-08-25T06:50:26;19.40;99.90
4647;DHT22;2336;47.822;7.564;2022-08-25T06:52:53;19.50;99.90
4647;DHT22;2336;47.822;7.564;2022-08-25T06:55:20;19.60;99.90
4647;DHT22;2336;47.822;7.564;2022-08-25T06:57:47;19.70;99.90
4647;DHT22;2336;47.822;7.564;2022-08-25T07:00:15;19.80;99.90
4647;DHT22;2336;47.822;7.564;2022-08-25T07:02:42;19.90;99.90
4647;DHT22;2336;47.822;7.564;2022-08-25T07:05:09;20.10;99.90
4647;DHT22;2336;47.822;7.564;2022-08-25T07:07:36;20.10;99.90
4647;DHT22;2336;47.822;7.564;2022-08-25T07:10:03;20.20;99.90
4647;DHT22;2336;47.822;7.564;2022-08-25T07:12:30;20.20;99.90
4647;DHT22;2336;47.822;7.564;2022-08-25T07:14:57;20.30;99.90
4647;DHT22;2336;47.822;7.564;2022-08-25T07:17:25;20.40;99.90
4647;DHT22;2336;47.822;7.564;2022-08-25T07:19:52;20.40;99.90
4647;DHT22;2336;47.822;7.564;2022-08-25T07:22:19;20.50;99.90
4647;DHT22;2336;47.822;7.564;2022-08-25T07:24:45;20.60;99.90
4647;DHT22;2336;47.822;7.564;2022-08-25T07:27:12;20.60;99.90
4647;DHT22;2336;47.822;7.564;2022-08-25T07:29:39;20.70;99.90
4647;DHT22;2336;47.822;7.564;2022-08-25T07:32:06;20.80;99.90
4647;DHT22;2336;47.822;7.564;2022-08-25T07:34:34;20.80;99.90
4647;DHT22;2336;47.822;7.564;2022-08-25T07:37:30;20.90;99.90
4647;DHT22;2336;47.822;7.564;2022-08-25T07:39:57;21.00;99.90
4647;DHT22;2336;47.822;7.564;2022-08-25T07:42:27;21.00;99.90
4647;DHT22;2336;47.822;7.564;2022-08-25T07:44:54;21.10;99.90
4647;DHT22;2336;47.822;7.564;2022-08-25T07:47:21;21.20;99.90
4647;DHT22;2336;47.822;7.564;2022-08-25T07:49:49;21.30;99.90
4647;DHT22;2336;47.822;7.564;2022-08-25T07:52:16;21.40;99.90
4647;DHT22;2336;47.822;7.564;2022-08-25T07:54:43;21.40;99.90
4647;DHT22;2336;47.822;7.564;2022-08-25T07:57:09;21.50;99.90
4647;DHT22;2336;47.822;7.564;2022-08-25T07:59:39;21.60;99.90
4647;DHT22;2336;47.822;7.564;2022-08-25T08:02:07;21.70;99.90
4647;DHT22;2336;47.822;7.564;2022-08-25T08:04:35;21.80;99.90
4647;DHT22;2336;47.822;7.564;2022-08-25T08:07:03;21.80;99.90
4647;DHT22;2336;47.822;7.564;2022-08-25T08:09:31;21.80;99.90
4647;DHT22;2336;47.822;7.564;2022-08-25T08:11:57;21.90;99.90
4647;DHT22;2336;47.822;7.564;2022-08-25T08:14:24;22.00;99.90
4647;DHT22;2336;47.822;7.564;2022-08-25T08:16:51;22.20;99.90
4647;DHT22;2336;47.822;7.564;2022-08-25T08:19:18;22.20;99.90
4647;DHT22;2336;47.822;7.564;2022-08-25T08:21:45;22.30;99.90
4647;DHT22;2336;47.822;7.564;2022-08-25T08:24:14;22.40;99.90
4647;DHT22;2336;47.822;7.564;2022-08-25T08:26:41;22.40;99.90
4647;DHT22;2336;47.822;7.564;2022-08-25T08:29:07;22.50;99.90
4647;DHT22;2336;47.822;7.564;2022-08-25T08:31:34;22.70;99.90
4647;DHT22;2336;47.822;7.564;2022-08-25T08:34:01;22.70;99.90
4647;DHT22;2336;47.822;7.564;2022-08-25T08:36:28;22.70;99.90
4647;DHT22;2336;47.822;7.564;2022-08-25T08:38:54;22.90;99.90
4647;DHT22;2336;47.822;7.564;2022-08-25T08:41:35;22.90;99.90
4647;DHT22;2336;47.822;7.564;2022-08-25T08:44:28;23.10;99.90
4647;DHT22;2336;47.822;7.564;2022-08-25T08:47:03;23.10;99.90
4647;DHT22;2336;47.822;7.564;2022-08-25T08:49:36;23.20;99.90
4647;DHT22;2336;47.822;7.564;2022-08-25T08:52:06;23.40;99.90
4647;DHT22;2336;47.822;7.564;2022-08-25T08:54:37;23.50;99.90
4647;DHT22;2336;47.822;7.564;2022-08-25T08:57:10;23.40;99.90
4647;DHT22;2336;47.822;7.564;2022-08-25T08:59:43;23.50;99.90
4647;DHT22;2336;47.822;7.564;2022-08-25T09:02:16;23.50;99.90
4647;DHT22;2336;47.822;7.564;2022-08-25T09:04:47;23.60;99.90
4647;DHT22;2336;47.822;7.564;2022-08-25T09:07:18;23.70;99.90
4647;DHT22;2336;47.822;7.564;2022-08-25T09:09:45;23.80;99.90
4647;DHT22;2336;47.822;7.564;2022-08-25T09:12:21;23.90;99.90
4647;DHT22;2336;47.822;7.564;2022-08-25T09:14:57;24.00;99.90
4647;DHT22;2336;47.822;7.564;2022-08-25T09:17:37;24.00;99.90
4647;DHT22;2336;47.822;7.564;2022-08-25T09:20:27;24.10;99.90
4647;DHT22;2336;47.822;7.564;2022-08-25T09:23:02;24.20;99.90
4647;DHT22;2336;47.822;7.564;2022-08-25T09:25:41;24.30;99.90
4647;DHT22;2336;47.822;7.564;2022-08-25T09:28:20;24.40;99.90
4647;DHT22;2336;47.822;7.564;2022-08-25T09:30:53;24.40;99.90
4647;DHT22;2336;47.822;7.564;2022-08-25T09:33:24;24.40;99.90
4647;DHT22;2336;47.822;7.564;2022-08-25T09:35:54;24.40;99.90
4647;DHT22;2336;47.822;7.564;2022-08-25T09:38:22;24.60;99.90
4647;DHT22;2336;47.822;7.564;2022-08-25T09:40:52;24.70;99.90
4647;DHT22;2336;47.822;7.564;2022-08-25T09:43:23;24.70;99.90
4647;DHT22;2336;47.822;7.564;2022-08-25T09:45:58;24.90;99.90
4647;DHT22;2336;47.822;7.564;2022-08-25T09:48:26;25.00;99.90
4647;DHT22;2336;47.822;7.564;2022-08-25T09:50:57;25.20;99.90
4647;DHT22;2336;47.822;7.564;2022-08-25T09:53:25;25.20;99.90
4647;DHT22;2336;47.822;7.564;2022-08-25T09:55:57;25.20;99.90
4647;DHT22;2336;47.822;7.564;2022-08-25T09:58:26;25.20;99.90
4647;DHT22;2336;47.822;7.564;2022-08-25T10:01:06;25.30;99.90
4647;DHT22;2336;47.822;7.564;2022-08-25T10:03:38;25.40;99.90
4647;DHT22;2336;47.822;7.564;2022-08-25T10:06:18;25.50;99.90
4647;DHT22;2336;47.822;7.564;2022-08-25T10:08:53;25.60;99.90
4647;DHT22;2336;47.822;7.564;2022-08-25T10:11:31;25.70;99.90
4647;DHT22;2336;47.822;7.564;2022-08-25T10:14:25;25.80;99.90
4647;DHT22;2336;47.822;7.564;2022-08-25T10:17:11;26.10;99.90
4647;DHT22;2336;47.822;7.564;2022-08-25T10:19:38;26.40;99.90
4647;DHT22;2336;47.822;7.564;2022-08-25T10:22:07;26.40;99.90
4647;DHT22;2336;47.822;7.564;2022-08-25T10:24:35;26.50;99.90
4647;DHT22;2336;47.822;7.564;2022-08-25T10:27:09;26.30;99.90
4647;DHT22;2336;47.822;7.564;2022-08-25T10:32:46;26.50;99.90
4647;DHT22;2336;47.822;7.564;2022-08-25T10:35:18;26.60;99.90
4647;DHT22;2336;47.822;7.564;2022-08-25T10:38:03;26.80;99.90
4647;DHT22;2336;47.822;7.564;2022-08-25T10:40:41;27.00;99.90
4647;DHT22;2336;47.822;7.564;2022-08-25T10:43:18;27.10;99.90
4647;DHT22;2336;47.822;7.564;2022-08-25T10:45:56;27.20;99.90
4647;DHT22;2336;47.822;7.564;2022-08-25T10:48:44;27.30;99.80
4647;DHT22;2336;47.822;7.564;2022-08-25T10:51:28;27.30;98.50
4647;DHT22;2336;47.822;7.564;2022-08-25T10:54:03;27.40;98.10
4647;DHT22;2336;47.822;7.564;2022-08-25T10:56:34;27.40;97.70
4647;DHT22;2336;47.822;7.564;2022-08-25T10:59:14;27.30;97.60
4647;DHT22;2336;47.822;7.564;2022-08-25T11:02:07;27.50;97.90
4647;DHT22;2336;47.822;7.564;2022-08-25T11:04:40;27.60;97.60
4647;DHT22;2336;47.822;7.564;2022-08-25T11:07:13;27.70;97.10
4647;DHT22;2336;47.822;7.564;2022-08-25T11:09:43;27.70;97.40
4647;DHT22;2336;47.822;7.564;2022-08-25T11:12:13;27.80;96.20
4647;DHT22;2336;47.822;7.564;2022-08-25T11:14:46;27.60;95.50
4647;DHT22;2336;47.822;7.564;2022-08-25T11:17:21;27.70;96.30
4647;DHT22;2336;47.822;7.564;2022-08-25T11:19:52;27.80;95.80
4647;DHT22;2336;47.822;7.564;2022-08-25T11:22:24;27.70;94.80
4647;DHT22;2336;47.822;7.564;2022-08-25T11:25:00;27.70;95.30
4647;DHT22;2336;47.822;7.564;2022-08-25T11:27:32;27.80;94.20
4647;DHT22;2336;47.822;7.564;2022-08-25T11:30:04;28.00;94.20
4647;DHT22;2336;47.822;7.564;2022-08-25T11:32:34;28.10;93.50
4647;DHT22;2336;47.822;7.564;2022-08-25T11:35:03;28.20;92.70
4647;DHT22;2336;47.822;7.564;2022-08-25T11:37:32;28.10;92.30
4647;DHT22;2336;47.822;7.564;2022-08-25T11:40:17;28.00;92.00
4647;DHT22;2336;47.822;7.564;2022-08-25T11:42:57;28.00;91.90
4647;DHT22;2336;47.822;7.564;2022-08-25T11:45:58;28.10;91.00
4647;DHT22;2336;47.822;7.564;2022-08-25T11:48:40;28.20;91.50
4647;DHT22;2336;47.822;7.564;2022-08-25T11:51:11;28.30;90.80
4647;DHT22;2336;47.822;7.564;2022-08-25T11:54:16;28.50;90.80
4647;DHT22;2336;47.822;7.564;2022-08-25T11:56:51;28.50;91.20
4647;DHT22;2336;47.822;7.564;2022-08-25T12:02:36;28.90;90.30
4647;DHT22;2336;47.822;7.564;2022-08-25T12:05:07;28.90;88.20
4647;DHT22;2336;47.822;7.564;2022-08-25T12:08:01;28.80;87.80
4647;DHT22;2336;47.822;7.564;2022-08-25T12:10:57;28.80;87.60
4647;DHT22;2336;47.822;7.564;2022-08-25T12:13:38;28.80;87.70
4647;DHT22;2336;47.822;7.564;2022-08-25T12:16:07;28.80;86.70
4647;DHT22;2336;47.822;7.564;2022-08-25T12:19:24;28.90;87.70
4647;DHT22;2336;47.822;7.564;2022-08-25T12:21:54;29.10;86.50
4647;DHT22;2336;47.822;7.564;2022-08-25T12:24:35;29.20;85.50
4647;DHT22;2336;47.822;7.564;2022-08-25T12:27:17;29.20;84.30
4647;DHT22;2336;47.822;7.564;2022-08-25T12:29:49;29.30;83.50
4647;DHT22;2336;47.822;7.564;2022-08-25T12:32:29;29.40;84.30
4647;DHT22;2336;47.822;7.564;2022-08-25T12:35:14;29.40;83.30
4647;DHT22;2336;47.822;7.564;2022-08-25T12:38:01;29.40;84.00
4647;DHT22;2336;47.822;7.564;2022-08-25T12:40:33;29.50;82.70
4647;DHT22;2336;47.822;7.564;2022-08-25T12:43:08;29.50;82.80
4647;DHT22;2336;47.822;7.564;2022-08-25T12:45:41;29.60;83.10
4647;DHT22;2336;47.822;7.564;2022-08-25T12:48:41;29.50;83.30
4647;DHT22;2336;47.822;7.564;2022-08-25T12:51:15;29.40;82.10
4647;DHT22;2336;47.822;7.564;2022-08-25T12:53:46;29.50;80.10
4647;DHT22;2336;47.822;7.564;2022-08-25T12:56:21;29.50;80.10
4647;DHT22;2336;47.822;7.564;2022-08-25T12:58:49;29.60;80.00
4647;DHT22;2336;47.822;7.564;2022-08-25T13:01:26;29.60;79.10
4647;DHT22;2336;47.822;7.564;2022-08-25T13:04:32;29.90;79.40
4647;DHT22;2336;47.822;7.564;2022-08-25T13:07:15;30.00;77.40
4647;DHT22;2336;47.822;7.564;2022-08-25T13:10:16;30.00;76.80
4647;DHT22;2336;47.822;7.564;2022-08-25T13:12:48;30.10;76.70
4647;DHT22;2336;47.822;7.564;2022-08-25T13:15:26;30.00;76.90
4647;DHT22;2336;47.822;7.564;2022-08-25T13:17:53;30.10;77.10
4647;DHT22;2336;47.822;7.564;2022-08-25T13:20:24;30.20;77.30
4647;DHT22;2336;47.822;7.564;2022-08-25T13:22:58;30.20;77.80
4647;DHT22;2336;47.822;7.564;2022-08-25T13:25:28;30.30;77.20
4647;DHT22;2336;47.822;7.564;2022-08-25T13:27:58;30.20;77.20
4647;DHT22;2336;47.822;7.564;2022-08-25T13:30:28;30.50;76.20
4647;DHT22;2336;47.822;7.564;2022-08-25T13:32:56;30.60;76.80
4647;DHT22;2336;47.822;7.564;2022-08-25T13:35:25;30.70;76.00
4647;DHT22;2336;47.822;7.564;2022-08-25T13:37:53;30.70;74.90
4647;DHT22;2336;47.822;7.564;2022-08-25T13:40:24;30.80;75.40
4647;DHT22;2336;47.822;7.564;2022-08-25T13:42:54;30.70;74.90
4647;DHT22;2336;47.822;7.564;2022-08-25T13:45:24;30.70;75.00
4647;DHT22;2336;47.822;7.564;2022-08-25T13:47:52;30.60;75.20
4647;DHT22;2336;47.822;7.564;2022-08-25T13:50:28;30.60;76.00
4647;DHT22;2336;47.822;7.564;2022-08-25T13:52:56;30.70;74.40
4647;DHT22;2336;47.822;7.564;2022-08-25T13:55:27;30.70;75.60
4647;DHT22;2336;47.822;7.564;2022-08-25T13:57:56;30.70;74.70
4647;DHT22;2336;47.822;7.564;2022-08-25T14:00:31;30.70;72.90
4647;DHT22;2336;47.822;7.564;2022-08-25T14:03:00;30.60;73.20
4647;DHT22;2336;47.822;7.564;2022-08-25T14:05:32;30.60;72.80
4647;DHT22;2336;47.822;7.564;2022-08-25T14:08:00;30.60;72.60
4647;DHT22;2336;47.822;7.564;2022-08-25T14:10:35;30.70;73.70
4647;DHT22;2336;47.822;7.564;2022-08-25T14:13:12;30.80;74.20
4647;DHT22;2336;47.822;7.564;2022-08-25T14:15:41;30.80;73.00
4647;DHT22;2336;47.822;7.564;2022-08-25T14:18:13;30.90;73.40
4647;DHT22;2336;47.822;7.564;2022-08-25T14:20:44;30.90;73.10
4647;DHT22;2336;47.822;7.564;2022-08-25T14:23:16;30.80;71.30
4647;DHT22;2336;47.822;7.564;2022-08-25T14:25:43;30.70;71.70
4647;DHT22;2336;47.822;7.564;2022-08-25T14:28:14;30.80;72.90
4647;DHT22;2336;47.822;7.564;2022-08-25T14:30:44;30.80;71.30
4647;DHT22;2336;47.822;7.564;2022-08-25T14:33:12;30.70;71.70
4647;DHT22;2336;47.822;7.564;2022-08-25T14:35:41;30.70;71.60
4647;DHT22;2336;47.822;7.564;2022-08-25T14:38:10;30.70;71.50
4647;DHT22;2336;47.822;7.564;2022-08-25T14:40:37;30.70;69.60
4647;DHT22;2336;47.822;7.564;2022-08-25T14:43:04;30.80;70.10
4647;DHT22;2336;47.822;7.564;2022-08-25T14:45:34;30.70;69.60
4647;DHT22;2336;47.822;7.564;2022-08-25T14:48:07;30.70;69.40
4647;DHT22;2336;47.822;7.564;2022-08-25T14:50:34;30.70;69.40
4647;DHT22;2336;47.822;7.564;2022-08-25T14:53:02;30.70;68.30
4647;DHT22;2336;47.822;7.564;2022-08-25T14:55:28;30.70;69.10
4647;DHT22;2336;47.822;7.564;2022-08-25T14:57:55;30.70;69.10
4647;DHT22;2336;47.822;7.564;2022-08-25T15:00:22;30.80;70.40
4647;DHT22;2336;47.822;7.564;2022-08-25T15:02:51;31.00;71.20
4647;DHT22;2336;47.822;7.564;2022-08-25T15:05:21;31.10;69.90
4647;DHT22;2336;47.822;7.564;2022-08-25T15:07:51;31.00;70.20
4647;DHT22;2336;47.822;7.564;2022-08-25T15:10:36;31.00;71.80
4647;DHT22;2336;47.822;7.564;2022-08-25T15:13:03;31.10;71.90
4647;DHT22;2336;47.822;7.564;2022-08-25T15:15:30;31.20;71.20
4647;DHT22;2336;47.822;7.564;2022-08-25T15:17:58;31.20;70.50
4647;DHT22;2336;47.822;7.564;2022-08-25T15:20:25;31.20;71.00
4647;DHT22;2336;47.822;7.564;2022-08-25T15:22:52;31.20;68.40
4647;DHT22;2336;47.822;7.564;2022-08-25T15:25:19;31.20;69.80
4647;DHT22;2336;47.822;7.564;2022-08-25T15:27:47;31.20;68.80
4647;DHT22;2336;47.822;7.564;2022-08-25T15:30:14;31.10;68.80
4647;DHT22;2336;47.822;7.564;2022-08-25T15:32:41;31.10;71.10
4647;DHT22;2336;47.822;7.564;2022-08-25T15:35:10;31.10;68.20
4647;DHT22;2336;47.822;7.564;2022-08-25T15:37:37;31.10;68.10
4647;DHT22;2336;47.822;7.564;2022-08-25T15:40:05;31.10;70.10
4647;DHT22;2336;47.822;7.564;2022-08-25T15:42:33;31.10;69.40
4647;DHT22;2336;47.822;7.564;2022-08-25T15:44:59;31.10;69.60
4647;DHT22;2336;47.822;7.564;2022-08-25T15:47:26;31.10;68.30
4647;DHT22;2336;47.822;7.564;2022-08-25T15:50:02;31.10;71.10
4647;DHT22;2336;47.822;7.564;2022-08-25T15:52:30;31.10;68.40
4647;DHT22;2336;47.822;7.564;2022-08-25T15:54:57;31.10;69.20
4647;DHT22;2336;47.822;7.564;2022-08-25T15:57:23;31.00;66.90
4647;DHT22;2336;47.822;7.564;2022-08-25T15:59:50;31.10;65.90
4647;DHT22;2336;47.822;7.564;2022-08-25T16:02:17;31.00;65.60
4647;DHT22;2336;47.822;7.564;2022-08-25T16:04:44;31.10;65.70
4647;DHT22;2336;47.822;7.564;2022-08-25T16:07:11;31.00;65.60
4647;DHT22;2336;47.822;7.564;2022-08-25T16:09:39;31.10;66.10
4647;DHT22;2336;47.822;7.564;2022-08-25T16:12:06;31.10;65.60
4647;DHT22;2336;47.822;7.564;2022-08-25T16:14:33;31.10;64.80
4647;DHT22;2336;47.822;7.564;2022-08-25T16:17:00;31.00;64.20
4647;DHT22;2336;47.822;7.564;2022-08-25T16:19:27;31.00;64.70
4647;DHT22;2336;47.822;7.564;2022-08-25T16:21:54;31.00;65.40
4647;DHT22;2336;47.822;7.564;2022-08-25T16:24:21;30.90;64.30
4647;DHT22;2336;47.822;7.564;2022-08-25T16:26:50;30.90;64.40
4647;DHT22;2336;47.822;7.564;2022-08-25T16:29:17;30.90;63.80